createdAt,value
2023-07-18T00:01:16.947Z,2.00
2023-07-18T00:03:44.943Z,2.00
2023-07-18T00:06:12.572Z,2.13
2023-07-18T00:08:41.225Z,2.30
2023-07-18T00:11:08.772Z,2.20
2023-07-18T00:13:36.235Z,2.30
2023-07-18T00:16:03.720Z,2.00
2023-07-18T00:18:32.547Z,2.50
2023-07-18T00:21:00.438Z,2.07
2023-07-18T00:23:28.827Z,2.27
2023-07-18T00:25:56.241Z,1.83
2023-07-18T00:28:24.660Z,2.00
2023-07-18T00:30:52.120Z,2.00
2023-07-18T00:33:19.559Z,2.00
2023-07-18T00:35:48.368Z,2.07
2023-07-18T00:38:15.814Z,2.30
2023-07-18T00:40:43.275Z,2.23
2023-07-18T00:43:14.110Z,2.30
2023-07-18T00:45:41.620Z,1.90
2023-07-18T00:48:10.631Z,2.30
2023-07-18T00:50:39.003Z,2.30
2023-07-18T00:53:08.255Z,2.20
2023-07-18T00:55:35.838Z,2.20
2023-07-18T00:58:03.884Z,2.67
2023-07-18T01:00:31.362Z,2.10
2023-07-18T01:02:59.434Z,1.90
2023-07-18T01:05:27.026Z,2.00
2023-07-18T01:07:54.675Z,1.90
2023-07-18T01:10:25.454Z,2.23
2023-07-18T01:12:53.484Z,2.10
2023-07-18T01:15:21.275Z,1.93
2023-07-18T01:17:49.787Z,2.20
2023-07-18T01:20:19.858Z,2.13
2023-07-18T01:22:49.423Z,1.83
2023-07-18T01:25:17.613Z,2.20
2023-07-18T01:27:45.397Z,1.73
2023-07-18T01:30:13.610Z,1.67
2023-07-18T01:32:42.994Z,1.83
2023-07-18T01:35:11.051Z,2.30
2023-07-18T01:37:39.326Z,1.83
2023-07-18T01:40:13.263Z,1.70
2023-07-18T01:42:41.091Z,2.23
2023-07-18T01:45:09.061Z,2.20
2023-07-18T01:47:37.217Z,2.07
2023-07-18T01:50:05.788Z,2.07
2023-07-18T01:52:33.801Z,2.20
2023-07-18T01:55:01.924Z,2.20
2023-07-18T01:57:31.868Z,2.37
2023-07-18T01:59:59.910Z,1.80
2023-07-18T02:02:27.456Z,1.87
2023-07-18T02:04:54.921Z,2.10
2023-07-18T02:07:22.412Z,2.10
2023-07-18T02:09:49.827Z,2.00
2023-07-18T02:12:17.619Z,2.13
2023-07-18T02:14:46.432Z,2.37
2023-07-18T02:17:13.939Z,1.83
2023-07-18T02:19:41.388Z,2.00
2023-07-18T02:22:08.851Z,2.07
2023-07-18T02:24:36.838Z,1.80
2023-07-18T02:27:04.896Z,2.30
2023-07-18T02:29:32.331Z,2.03
2023-07-18T02:32:01.999Z,2.23
2023-07-18T02:34:29.608Z,2.10
2023-07-18T02:36:57.055Z,2.00
2023-07-18T02:39:24.495Z,2.00
2023-07-18T02:41:51.918Z,2.30
2023-07-18T02:44:19.378Z,1.80
2023-07-18T02:46:46.897Z,2.10
2023-07-18T02:49:15.723Z,2.13
2023-07-18T02:51:43.175Z,2.30
2023-07-18T02:54:10.600Z,2.33
2023-07-18T02:56:38.040Z,2.20
2023-07-18T02:59:05.517Z,2.30
2023-07-18T03:01:33.375Z,2.40
2023-07-18T03:04:01.683Z,2.30
2023-07-18T03:06:30.884Z,2.03
2023-07-18T03:08:58.465Z,2.30
2023-07-18T03:11:26.664Z,2.00
2023-07-18T03:13:54.724Z,2.50
2023-07-18T03:16:22.217Z,1.90
2023-07-18T03:18:49.685Z,2.17
2023-07-18T03:21:18.074Z,1.80
2023-07-18T03:23:47.421Z,2.50
2023-07-18T03:26:14.938Z,2.20
2023-07-18T03:28:42.402Z,2.00
2023-07-18T03:31:09.830Z,2.10
2023-07-18T03:33:37.290Z,2.87
2023-07-18T03:36:06.220Z,2.17
2023-07-18T03:38:33.854Z,1.90
2023-07-18T03:41:02.660Z,2.40
2023-07-18T03:43:30.077Z,2.10
2023-07-18T03:45:57.589Z,1.93
2023-07-18T03:48:27.487Z,2.30
2023-07-18T03:50:55.466Z,2.07
2023-07-18T03:53:23.778Z,2.20
2023-07-18T03:55:51.387Z,2.00
2023-07-18T03:58:20.276Z,2.60
2023-07-18T04:00:47.894Z,2.17
2023-07-18T04:03:15.342Z,2.37
2023-07-18T04:05:42.796Z,2.30
2023-07-18T04:08:10.257Z,2.20
2023-07-18T04:10:37.679Z,2.13
2023-07-18T04:13:05.139Z,2.30
2023-07-18T04:15:33.949Z,2.40
2023-07-18T04:18:02.060Z,2.03
2023-07-18T04:20:29.592Z,2.50
2023-07-18T04:22:58.951Z,2.23
2023-07-18T04:25:26.414Z,2.27
2023-07-18T04:27:53.904Z,2.20
2023-07-18T04:30:21.474Z,2.20
2023-07-18T04:32:50.561Z,2.40
2023-07-18T04:35:18.979Z,2.20
2023-07-18T04:37:46.403Z,2.33
2023-07-18T04:40:14.027Z,2.23
2023-07-18T04:42:41.494Z,2.20
2023-07-18T04:45:09.106Z,1.90
2023-07-18T04:47:36.875Z,2.20
2023-07-18T04:50:06.156Z,1.93
2023-07-18T04:52:33.812Z,2.20
2023-07-18T04:55:01.349Z,2.03
2023-07-18T04:57:29.690Z,1.77
2023-07-18T04:59:57.351Z,2.37
2023-07-18T05:02:24.773Z,2.17
2023-07-18T05:04:52.507Z,2.40
2023-07-18T05:07:21.317Z,2.50
2023-07-18T05:09:48.789Z,2.43
2023-07-18T05:12:16.352Z,2.53
2023-07-18T05:14:43.795Z,2.70
2023-07-18T05:17:11.280Z,2.10
2023-07-18T05:19:38.716Z,1.80
2023-07-18T05:22:06.151Z,2.43
2023-07-18T05:24:34.929Z,2.40
2023-07-18T05:27:02.432Z,2.47
2023-07-18T05:29:29.882Z,2.30
2023-07-18T05:31:57.505Z,2.63
2023-07-18T05:34:26.155Z,2.33
2023-07-18T05:36:54.708Z,2.50
2023-07-18T05:39:22.153Z,2.23
2023-07-18T05:41:50.934Z,2.27
2023-07-18T05:44:18.398Z,2.50
2023-07-18T05:46:46.210Z,2.53
2023-07-18T05:49:13.879Z,2.30
2023-07-18T05:51:41.316Z,2.00
2023-07-18T05:54:08.849Z,2.37
2023-07-18T05:56:36.358Z,2.23
2023-07-18T05:59:07.803Z,2.47
2023-07-18T06:01:35.368Z,2.50
2023-07-18T06:04:02.958Z,2.53
2023-07-18T06:06:30.450Z,2.60
2023-07-18T06:08:57.908Z,2.67
2023-07-18T06:11:25.617Z,2.27
2023-07-18T06:13:53.076Z,2.67
2023-07-18T06:16:21.892Z,2.73
2023-07-18T06:18:49.357Z,2.57
2023-07-18T06:21:17.194Z,2.70
2023-07-18T06:23:47.510Z,2.50
2023-07-18T06:26:15.186Z,2.47
2023-07-18T06:28:42.617Z,2.90
2023-07-18T06:31:10.758Z,2.63
2023-07-18T06:33:39.582Z,2.50
2023-07-18T06:36:07.271Z,2.50
2023-07-18T06:38:34.776Z,2.50
2023-07-18T06:41:02.352Z,2.57
2023-07-18T06:43:29.835Z,2.80
2023-07-18T06:45:57.265Z,2.80
2023-07-18T06:48:25.596Z,2.50
2023-07-18T06:50:57.507Z,2.60
2023-07-18T06:53:24.941Z,2.70
2023-07-18T06:55:52.364Z,2.73
2023-07-18T06:58:20.244Z,2.50
2023-07-18T07:00:48.423Z,2.63
2023-07-18T07:03:16.126Z,2.47
2023-07-18T07:05:44.469Z,2.70
2023-07-18T07:08:13.767Z,2.30
2023-07-18T07:10:42.736Z,2.50
2023-07-18T07:13:10.276Z,2.70
2023-07-18T07:15:37.889Z,2.63
2023-07-18T07:18:06.222Z,2.53
2023-07-18T07:20:34.758Z,2.83
2023-07-18T07:23:02.723Z,2.60
2023-07-18T07:25:32.301Z,2.00
2023-07-18T07:27:59.732Z,2.30
2023-07-18T07:30:27.173Z,2.50
2023-07-18T07:32:54.685Z,2.30
2023-07-18T07:35:23.500Z,2.47
2023-07-18T07:37:51.817Z,2.27
2023-07-18T07:40:19.329Z,2.60
2023-07-18T07:42:48.484Z,2.40
2023-07-18T07:45:16.306Z,2.40
2023-07-18T07:47:44.168Z,2.13
2023-07-18T07:50:11.882Z,2.47
2023-07-18T07:52:39.285Z,2.50
2023-07-18T07:55:07.453Z,2.47
2023-07-18T07:57:34.966Z,2.20
2023-07-18T08:00:03.848Z,2.30
2023-07-18T08:02:31.360Z,2.00
2023-07-18T08:04:58.913Z,2.30
2023-07-18T08:07:26.423Z,2.27
2023-07-18T08:09:53.877Z,2.00
2023-07-18T08:12:22.223Z,2.30
2023-07-18T08:14:50.030Z,2.80
2023-07-18T08:17:19.133Z,2.40
2023-07-18T08:19:46.739Z,2.23
2023-07-18T08:22:15.398Z,2.60
2023-07-18T08:24:42.869Z,2.47
2023-07-18T08:27:10.497Z,2.07
2023-07-18T08:29:38.156Z,2.57
2023-07-18T08:32:06.481Z,2.00
2023-07-18T08:34:35.904Z,2.50
2023-07-18T08:37:03.685Z,2.40
2023-07-18T08:39:31.148Z,2.30
2023-07-18T08:41:59.586Z,2.30
2023-07-18T08:44:27.401Z,2.40
2023-07-18T08:46:55.038Z,2.30
2023-07-18T08:49:23.335Z,2.70
2023-07-18T08:51:53.533Z,2.30
2023-07-18T08:54:20.951Z,2.30
2023-07-18T08:56:48.415Z,2.10
2023-07-18T08:59:16.056Z,2.17
2023-07-18T09:01:47.006Z,2.33
2023-07-18T09:04:14.533Z,2.23
2023-07-18T09:06:50.341Z,2.20
2023-07-18T09:09:22.220Z,1.87
2023-07-18T09:11:57.508Z,2.43
2023-07-18T09:14:27.423Z,2.20
2023-07-18T09:16:55.772Z,2.30
2023-07-18T09:19:39.623Z,2.20
2023-07-18T09:22:07.867Z,2.47
2023-07-18T09:24:37.762Z,2.20
2023-07-18T09:27:06.841Z,2.33
2023-07-18T09:29:34.324Z,2.30
2023-07-18T09:32:02.011Z,2.47
2023-07-18T09:34:30.043Z,2.50
2023-07-18T09:36:59.125Z,1.90
2023-07-18T09:39:27.019Z,2.00
2023-07-18T09:41:56.506Z,2.20
2023-07-18T09:44:32.404Z,2.27
2023-07-18T09:47:01.687Z,2.50
2023-07-18T09:49:33.038Z,2.13
2023-07-18T09:52:04.532Z,2.17
2023-07-18T09:54:32.336Z,2.33
2023-07-18T09:57:04.425Z,2.10
2023-07-18T09:59:32.102Z,2.17
2023-07-18T10:01:59.617Z,2.30
2023-07-18T10:04:27.228Z,2.60
2023-07-18T10:06:56.456Z,2.33
2023-07-18T10:09:25.092Z,2.10
2023-07-18T10:12:09.524Z,2.30
2023-07-18T10:14:51.856Z,2.20
2023-07-18T10:17:37.517Z,2.10
2023-07-18T10:20:07.937Z,2.40
2023-07-18T10:22:35.407Z,2.20
2023-07-18T10:25:07.952Z,2.00
2023-07-18T10:27:40.820Z,1.97
2023-07-18T10:30:09.447Z,2.43
2023-07-18T10:32:38.482Z,2.00
2023-07-18T10:35:10.045Z,2.50
2023-07-18T10:37:38.200Z,2.10
2023-07-18T10:40:07.149Z,2.10
2023-07-18T10:42:36.101Z,2.10
2023-07-18T10:45:06.188Z,2.40
2023-07-18T10:47:33.941Z,2.13
2023-07-18T10:50:01.452Z,2.30
2023-07-18T10:52:29.437Z,2.20
2023-07-18T10:54:57.691Z,2.10
2023-07-18T10:57:26.082Z,2.20
2023-07-18T10:59:54.029Z,1.93
2023-07-18T11:02:23.008Z,2.73
2023-07-18T11:04:51.182Z,1.90
2023-07-18T11:07:18.850Z,2.30
2023-07-18T11:09:46.386Z,2.20
2023-07-18T11:12:20.263Z,2.00
2023-07-18T11:14:48.092Z,2.40
2023-07-18T11:17:18.093Z,2.07
2023-07-18T11:19:47.949Z,2.37
2023-07-18T11:22:16.039Z,2.40
2023-07-18T11:24:44.971Z,2.30
2023-07-18T11:27:13.321Z,2.37
2023-07-18T11:29:40.820Z,2.70
2023-07-18T11:32:08.579Z,2.27
2023-07-18T11:34:36.099Z,2.30
2023-07-18T11:37:07.517Z,2.50
2023-07-18T11:39:35.063Z,2.43
2023-07-18T11:42:09.933Z,2.47
2023-07-18T11:44:44.223Z,2.50
2023-07-18T11:47:12.038Z,2.40
2023-07-18T11:49:39.750Z,2.40
2023-07-18T11:52:10.905Z,2.20
2023-07-18T11:54:38.463Z,2.37
2023-07-18T11:57:06.890Z,2.20
2023-07-18T11:59:34.628Z,2.20
2023-07-18T12:02:02.410Z,2.23
2023-07-18T12:04:30.314Z,2.60
2023-07-18T12:06:58.602Z,2.37
2023-07-18T12:09:27.479Z,2.53
2023-07-18T12:11:55.469Z,2.53
2023-07-18T12:14:23.078Z,2.30
2023-07-18T12:16:50.543Z,2.40
2023-07-18T12:19:20.584Z,2.37
2023-07-18T12:21:49.671Z,2.30
2023-07-18T12:24:17.183Z,2.47
2023-07-18T12:26:46.290Z,2.37
2023-07-18T12:29:14.824Z,2.03
2023-07-18T12:31:45.067Z,2.20
2023-07-18T12:34:12.537Z,2.33
2023-07-18T12:36:40.454Z,2.20
2023-07-18T12:39:07.890Z,2.50
2023-07-18T12:41:36.704Z,2.40
2023-07-18T12:44:05.685Z,2.53
2023-07-18T12:46:33.166Z,2.30
2023-07-18T12:51:30.996Z,2.47
2023-07-18T12:53:58.431Z,2.50
2023-07-18T12:56:26.039Z,2.30
2023-07-18T12:58:53.703Z,2.63
2023-07-18T13:01:22.883Z,2.60
2023-07-18T13:03:50.543Z,2.40
2023-07-18T13:06:18.418Z,2.30
2023-07-18T13:08:46.090Z,2.20
2023-07-18T13:11:13.583Z,2.67
2023-07-18T13:13:41.088Z,2.43
2023-07-18T13:16:08.634Z,2.40
2023-07-18T13:18:37.458Z,2.60
2023-07-18T13:21:05.064Z,2.50
2023-07-18T13:23:32.510Z,2.30
2023-07-18T13:26:00.158Z,2.80
2023-07-18T13:28:27.669Z,2.67
2023-07-18T13:30:56.888Z,2.30
2023-07-18T13:33:24.348Z,2.23
2023-07-18T13:35:53.274Z,2.40
2023-07-18T13:38:20.763Z,2.73
2023-07-18T13:40:48.222Z,2.40
2023-07-18T13:43:15.705Z,2.50
2023-07-18T13:45:43.121Z,2.43
2023-07-18T13:48:10.690Z,2.47
2023-07-18T13:50:39.041Z,3.10
2023-07-18T13:53:08.081Z,2.57
2023-07-18T13:55:35.566Z,2.60
2023-07-18T13:58:03.057Z,2.50
2023-07-18T14:00:32.196Z,2.40
2023-07-18T14:02:59.678Z,2.43
2023-07-18T14:05:29.394Z,2.77
2023-07-18T14:07:57.495Z,2.43
2023-07-18T14:10:26.337Z,2.47
2023-07-18T14:12:53.957Z,2.60
2023-07-18T14:15:21.487Z,2.60
2023-07-18T14:17:49.100Z,2.50
2023-07-18T14:20:16.726Z,2.70
2023-07-18T14:22:45.457Z,2.87
2023-07-18T14:25:13.665Z,2.30
2023-07-18T14:27:42.683Z,2.33
2023-07-18T14:30:10.539Z,2.53
2023-07-18T14:32:39.515Z,2.47
2023-07-18T14:35:07.977Z,2.70
2023-07-18T14:37:35.540Z,2.30
2023-07-18T14:40:05.873Z,2.73
2023-07-18T14:42:33.784Z,2.40
2023-07-18T14:45:02.636Z,2.60
2023-07-18T14:47:30.295Z,2.37
2023-07-18T14:49:58.329Z,2.37
2023-07-18T14:52:25.789Z,2.07
2023-07-18T14:54:57.544Z,2.60
2023-07-18T14:57:26.720Z,2.40
2023-07-18T14:59:55.011Z,2.57
2023-07-18T15:02:23.915Z,2.80
2023-07-18T15:04:51.978Z,2.83
2023-07-18T15:07:19.528Z,2.50
2023-07-18T15:09:47.768Z,2.77
2023-07-18T15:12:17.005Z,2.50
2023-07-18T15:14:44.645Z,2.80
2023-07-18T15:17:12.095Z,2.60
2023-07-18T15:19:40.911Z,2.60
2023-07-18T15:22:08.409Z,2.30
2023-07-18T15:24:37.365Z,2.43
2023-07-18T15:27:05.140Z,2.40
2023-07-18T15:29:32.640Z,2.50
2023-07-18T15:32:00.097Z,2.70
2023-07-18T15:34:27.599Z,2.40
2023-07-18T15:36:56.993Z,2.80
2023-07-18T15:39:24.761Z,2.77
2023-07-18T15:41:52.294Z,2.40
2023-07-18T15:44:19.737Z,2.57
2023-07-18T15:46:47.222Z,2.40
2023-07-18T15:49:14.692Z,2.40
2023-07-18T15:51:42.563Z,2.50
2023-07-18T15:54:11.872Z,2.60
2023-07-18T15:56:40.836Z,2.23
2023-07-18T15:59:08.306Z,2.30
2023-07-18T16:01:36.209Z,2.70
2023-07-18T16:04:03.969Z,2.50
2023-07-18T16:06:31.484Z,2.40
2023-07-18T16:09:01.283Z,2.40
2023-07-18T16:11:30.117Z,2.70
2023-07-18T16:13:57.629Z,2.77
2023-07-18T16:16:25.869Z,2.43
2023-07-18T16:18:54.031Z,2.70
2023-07-18T16:21:21.815Z,2.90
2023-07-18T16:23:49.473Z,2.43
2023-07-18T16:26:17.752Z,2.40
2023-07-18T16:28:47.145Z,2.60
2023-07-18T16:31:14.734Z,2.40
2023-07-18T16:33:42.361Z,2.40
2023-07-18T16:36:10.212Z,2.50
2023-07-18T16:38:37.742Z,2.53
2023-07-18T16:41:05.687Z,2.40
2023-07-18T16:43:33.175Z,2.30
2023-07-18T16:46:02.116Z,2.70
2023-07-18T16:48:30.662Z,2.60
2023-07-18T16:50:58.280Z,2.87
2023-07-18T16:53:25.802Z,2.77
2023-07-18T16:55:53.809Z,2.43
2023-07-18T16:58:21.408Z,2.67
2023-07-18T17:00:48.920Z,2.77
2023-07-18T17:03:17.861Z,2.77
2023-07-18T17:05:45.286Z,2.90
2023-07-18T17:08:13.098Z,2.60
2023-07-18T17:10:40.565Z,2.73
2023-07-18T17:13:08.735Z,2.73
2023-07-18T17:15:38.536Z,2.40
2023-07-18T17:18:08.072Z,2.63
2023-07-18T17:20:37.054Z,2.83
2023-07-18T17:23:05.161Z,2.73
2023-07-18T17:25:32.766Z,2.53
2023-07-18T17:28:00.216Z,2.40
2023-07-18T17:30:28.837Z,2.67
2023-07-18T17:32:56.368Z,2.53
2023-07-18T17:35:23.917Z,2.70
2023-07-18T17:37:52.699Z,2.50
2023-07-18T17:40:20.189Z,2.57
2023-07-18T17:42:47.948Z,2.40
2023-07-18T17:45:15.822Z,2.87
2023-07-18T17:47:45.607Z,2.60
2023-07-18T17:50:13.174Z,2.63
2023-07-18T17:52:42.189Z,2.50
2023-07-18T17:55:11.637Z,2.80
2023-07-18T17:57:40.819Z,2.90
2023-07-18T18:00:09.896Z,2.70
2023-07-18T18:02:37.573Z,3.20
2023-07-18T18:05:30.815Z,4.40
2023-07-18T18:08:00.303Z,5.97
2023-07-18T18:10:27.825Z,9.80
2023-07-18T18:12:55.227Z,10.20
2023-07-18T18:15:22.650Z,2.77
2023-07-18T18:17:50.210Z,2.87
2023-07-18T18:20:18.550Z,2.67
2023-07-18T18:22:46.123Z,2.67
2023-07-18T18:25:14.990Z,2.90
2023-07-18T18:27:42.485Z,2.70
2023-07-18T18:30:10.329Z,2.97
2023-07-18T18:32:37.808Z,2.40
2023-07-18T18:35:08.549Z,2.63
2023-07-18T18:37:36.757Z,3.00
2023-07-18T18:40:04.407Z,2.40
2023-07-18T18:42:33.376Z,2.67
2023-07-18T18:45:00.886Z,2.63
2023-07-18T18:47:28.487Z,2.50
2023-07-18T18:49:56.068Z,2.90
2023-07-18T18:52:23.550Z,2.67
2023-07-18T18:54:58.702Z,2.83
2023-07-18T18:57:33.902Z,2.73
2023-07-18T19:00:01.329Z,2.80
2023-07-18T19:02:28.972Z,3.00
2023-07-18T19:04:56.475Z,2.67
2023-07-18T19:07:24.010Z,3.07
2023-07-18T19:09:52.118Z,2.93
2023-07-18T19:12:19.737Z,2.73
2023-07-18T19:14:48.547Z,2.87
2023-07-18T19:17:16.084Z,2.73
2023-07-18T19:19:44.283Z,2.70
2023-07-18T19:22:12.901Z,2.70
2023-07-18T19:24:40.742Z,3.20
2023-07-18T19:27:08.890Z,2.87
2023-07-18T19:29:36.488Z,2.80
2023-07-18T19:32:09.433Z,3.00
2023-07-18T19:34:36.942Z,3.40
2023-07-18T19:37:04.648Z,2.77
2023-07-18T19:39:32.853Z,2.83
2023-07-18T19:42:00.423Z,2.67
2023-07-18T19:44:28.169Z,2.90
2023-07-18T19:46:55.663Z,2.93
2023-07-18T19:49:24.632Z,2.77
2023-07-18T19:51:52.196Z,3.40
2023-07-18T19:54:19.765Z,2.73
2023-07-18T19:56:47.239Z,3.10
2023-07-18T19:59:14.715Z,2.80
2023-07-18T20:01:43.617Z,3.00
2023-07-18T20:04:12.391Z,2.70
2023-07-18T20:06:41.402Z,2.90
2023-07-18T20:09:08.827Z,2.70
2023-07-18T20:11:36.340Z,2.90
2023-07-18T20:14:03.848Z,3.40
2023-07-18T20:16:31.690Z,3.00
2023-07-18T20:19:02.560Z,2.80
2023-07-18T20:21:30.536Z,2.87
2023-07-18T20:23:59.577Z,3.00
2023-07-18T20:26:27.052Z,2.93
2023-07-18T20:28:54.502Z,2.90
2023-07-18T20:31:22.186Z,3.10
2023-07-18T20:33:49.913Z,3.20
2023-07-18T20:36:17.401Z,2.90
2023-07-18T20:38:44.932Z,2.60
2023-07-18T20:41:13.982Z,2.83
2023-07-18T20:43:42.304Z,3.00
2023-07-18T20:46:12.188Z,3.10
2023-07-18T20:48:39.815Z,2.63
2023-07-18T20:51:07.960Z,3.07
2023-07-18T20:53:35.370Z,3.10
2023-07-18T20:56:02.856Z,2.73
2023-07-18T20:58:32.245Z,2.80
2023-07-18T21:00:59.785Z,2.60
2023-07-18T21:03:28.971Z,2.83
2023-07-18T21:05:56.796Z,2.83
2023-07-18T21:08:24.364Z,2.97
2023-07-18T21:10:51.814Z,3.00
2023-07-18T21:13:19.266Z,2.90
2023-07-18T21:15:48.126Z,2.70
2023-07-18T21:18:15.575Z,3.30
2023-07-18T21:20:43.051Z,3.17
2023-07-18T21:23:10.582Z,3.00
2023-07-18T21:25:38.091Z,3.53
2023-07-18T21:28:05.793Z,2.83
2023-07-18T21:30:33.266Z,2.83
2023-07-18T21:33:02.274Z,3.20
2023-07-18T21:35:29.847Z,3.13
2023-07-18T21:37:57.303Z,2.83
2023-07-18T21:40:24.839Z,2.77
2023-07-18T21:42:52.317Z,3.13
2023-07-18T21:45:19.781Z,2.90
2023-07-18T21:47:47.287Z,2.90
2023-07-18T21:50:16.100Z,3.13
2023-07-18T21:52:44.360Z,3.00
2023-07-18T21:55:11.974Z,2.80
2023-07-18T21:57:39.504Z,3.50
2023-07-18T22:00:07.877Z,3.00
2023-07-18T22:02:35.465Z,2.60
2023-07-18T22:05:03.241Z,3.30
2023-07-18T22:07:32.445Z,3.30
2023-07-18T22:10:00.478Z,3.20
2023-07-18T22:12:27.997Z,3.67
2023-07-18T22:14:55.561Z,3.20
2023-07-18T22:17:23.117Z,2.90
2023-07-18T22:19:50.651Z,3.10
2023-07-18T22:22:18.100Z,2.83
2023-07-18T22:24:46.896Z,3.33
2023-07-18T22:27:14.336Z,3.10
2023-07-18T22:29:41.824Z,2.90
2023-07-18T22:32:09.912Z,2.97
2023-07-18T22:34:37.401Z,3.70
2023-07-18T22:37:05.040Z,3.13
2023-07-18T22:39:36.272Z,2.97
2023-07-18T22:42:15.916Z,3.03
2023-07-18T22:44:43.435Z,3.17
2023-07-18T22:47:10.985Z,3.17
2023-07-18T22:49:38.921Z,3.30
2023-07-18T22:52:07.160Z,3.00
2023-07-18T22:54:35.274Z,3.47
2023-07-18T22:57:04.464Z,3.47
2023-07-18T22:59:33.337Z,3.20
2023-07-18T23:02:00.775Z,3.40
2023-07-18T23:04:28.938Z,3.37
2023-07-18T23:06:56.394Z,3.50
2023-07-18T23:09:24.131Z,3.03
2023-07-18T23:11:52.794Z,3.03
2023-07-18T23:14:20.444Z,3.20
2023-07-18T23:16:50.850Z,3.00
2023-07-18T23:19:18.346Z,3.47
2023-07-18T23:21:46.567Z,3.10
2023-07-18T23:24:14.113Z,3.23
2023-07-18T23:26:41.682Z,3.17
2023-07-18T23:29:09.134Z,3.00
2023-07-18T23:31:37.791Z,3.37
2023-07-18T23:34:06.638Z,3.30
2023-07-18T23:36:34.175Z,3.10
2023-07-18T23:39:01.681Z,3.33
2023-07-18T23:41:29.233Z,3.00
2023-07-18T23:43:56.721Z,3.40
2023-07-18T23:46:24.299Z,3.13
2023-07-18T23:48:51.766Z,3.37
2023-07-18T23:51:21.309Z,3.40
2023-07-18T23:53:49.017Z,3.27
2023-07-18T23:56:16.470Z,3.20
2023-07-18T23:58:43.898Z,3.10
